createdAt,value
2023-11-10T00:01:06.365Z,100.00
2023-11-10T00:06:23.083Z,100.00
2023-11-10T00:08:52.038Z,100.00
2023-11-10T00:11:20.184Z,100.00
2023-11-10T00:13:49.471Z,100.00
2023-11-10T00:16:19.827Z,100.00
2023-11-10T00:18:48.319Z,100.00
2023-11-10T00:21:23.256Z,100.00
2023-11-10T00:23:53.920Z,100.00
2023-11-10T00:26:23.161Z,100.00
2023-11-10T00:28:53.643Z,100.00
2023-11-10T00:31:21.658Z,100.00
2023-11-10T00:33:52.875Z,100.00
2023-11-10T00:36:22.919Z,100.00
2023-11-10T00:38:51.660Z,100.00
2023-11-10T00:41:20.816Z,100.00
2023-11-10T00:43:51.246Z,100.00
2023-11-10T00:46:19.974Z,100.00
2023-11-10T00:48:48.612Z,100.00
2023-11-10T00:51:16.758Z,100.00
2023-11-10T00:53:45.318Z,100.00
2023-11-10T00:56:13.317Z,100.00
2023-11-10T00:58:41.666Z,100.00
2023-11-10T01:01:09.676Z,100.00
2023-11-10T01:03:38.304Z,100.00
2023-11-10T01:06:06.916Z,100.00
2023-11-10T01:08:35.807Z,100.00
2023-11-10T01:11:04.103Z,100.00
2023-11-10T01:13:34.053Z,100.00
2023-11-10T01:16:03.170Z,100.00
2023-11-10T01:18:32.922Z,100.00
2023-11-10T01:21:01.546Z,100.00
2023-11-10T01:23:30.862Z,100.00
2023-11-10T01:25:58.998Z,100.00
2023-11-10T01:28:27.750Z,100.00
2023-11-10T01:30:56.242Z,100.00
2023-11-10T01:33:24.957Z,100.00
2023-11-10T01:35:53.640Z,100.00
2023-11-10T01:38:22.602Z,100.00
2023-11-10T01:40:51.901Z,100.00
2023-11-10T01:43:20.415Z,100.00
2023-11-10T01:45:48.521Z,100.00
2023-11-10T01:48:17.274Z,100.00
2023-11-10T01:50:45.943Z,100.00
2023-11-10T01:53:15.385Z,100.00
2023-11-10T01:55:48.760Z,100.00
2023-11-10T01:58:18.537Z,100.00
2023-11-10T02:00:47.150Z,100.00
2023-11-10T02:03:16.391Z,100.00
2023-11-10T02:05:44.610Z,100.00
2023-11-10T02:08:13.037Z,100.00
2023-11-10T02:10:41.167Z,100.00
2023-11-10T02:13:09.775Z,100.00
2023-11-10T02:15:37.875Z,100.00
2023-11-10T02:18:06.319Z,100.00
2023-11-10T02:20:34.435Z,100.00
2023-11-10T02:23:03.096Z,100.00
2023-11-10T02:25:31.388Z,100.00
2023-11-10T02:27:59.810Z,100.00
2023-11-10T02:30:28.010Z,100.00
2023-11-10T02:32:56.790Z,100.00
2023-11-10T02:35:24.952Z,100.00
2023-11-10T02:37:53.336Z,100.00
2023-11-10T02:40:21.397Z,100.00
2023-11-10T02:42:49.871Z,100.00
2023-11-10T02:45:18.103Z,100.00
2023-11-10T02:47:46.669Z,100.00
2023-11-10T02:50:14.846Z,100.00
2023-11-10T02:52:43.345Z,100.00
2023-11-10T02:55:11.534Z,100.00
2023-11-10T02:57:40.068Z,100.00
2023-11-10T03:00:11.243Z,100.00
2023-11-10T03:02:39.865Z,100.00
2023-11-10T03:05:08.999Z,100.00
2023-11-10T03:07:38.509Z,100.00
2023-11-10T03:10:10.312Z,100.00
2023-11-10T03:12:39.331Z,100.00
2023-11-10T03:15:08.437Z,100.00
2023-11-10T03:17:37.209Z,100.00
2023-11-10T03:20:08.114Z,100.00
2023-11-10T03:22:37.221Z,100.00
2023-11-10T03:25:05.737Z,100.00
2023-11-10T03:27:34.188Z,100.00
2023-11-10T03:30:02.355Z,100.00
2023-11-10T03:32:34.296Z,100.00
2023-11-10T03:35:02.826Z,100.00
2023-11-10T03:37:31.399Z,100.00
2023-11-10T03:39:59.572Z,100.00
2023-11-10T03:42:29.213Z,100.00
2023-11-10T03:44:57.769Z,100.00
2023-11-10T03:47:26.354Z,100.00
2023-11-10T03:49:54.507Z,100.00
2023-11-10T03:52:22.990Z,100.00
2023-11-10T03:54:51.175Z,100.00
2023-11-10T03:57:19.760Z,100.00
2023-11-10T03:59:48.019Z,100.00
2023-11-10T04:02:16.784Z,100.00
2023-11-10T04:04:45.210Z,100.00
2023-11-10T04:07:14.158Z,100.00
2023-11-10T04:09:42.578Z,100.00
2023-11-10T04:12:11.177Z,100.00
2023-11-10T04:14:41.966Z,100.00
2023-11-10T04:17:10.940Z,100.00
2023-11-10T04:19:39.144Z,100.00
2023-11-10T04:22:08.800Z,100.00
2023-11-10T04:24:37.010Z,100.00
2023-11-10T04:27:06.055Z,100.00
2023-11-10T04:29:34.180Z,100.00
2023-11-10T04:32:02.686Z,100.00
2023-11-10T04:34:30.868Z,100.00
2023-11-10T04:36:59.612Z,100.00
2023-11-10T04:39:27.771Z,100.00
2023-11-10T04:41:56.278Z,100.00
2023-11-10T04:44:24.768Z,100.00
2023-11-10T04:46:53.352Z,100.00
2023-11-10T04:49:21.501Z,100.00
2023-11-10T04:51:50.809Z,100.00
2023-11-10T04:54:19.145Z,100.00
2023-11-10T04:56:47.786Z,100.00
2023-11-10T04:59:16.168Z,100.00
2023-11-10T05:01:45.092Z,100.00
2023-11-10T05:04:14.152Z,100.00
2023-11-10T05:06:43.046Z,100.00
2023-11-10T05:09:11.461Z,100.00
2023-11-10T05:11:40.069Z,100.00
2023-11-10T05:14:10.102Z,100.00
2023-11-10T05:16:38.943Z,100.00
2023-11-10T05:19:07.081Z,100.00
2023-11-10T05:21:35.696Z,100.00
2023-11-10T05:24:04.263Z,100.00
2023-11-10T05:26:32.728Z,100.00
2023-11-10T05:29:00.817Z,100.00
2023-11-10T05:31:29.446Z,100.00
2023-11-10T05:33:58.483Z,100.00
2023-11-10T05:36:27.019Z,100.00
2023-11-10T05:38:55.204Z,100.00
2023-11-10T05:41:25.219Z,100.00
2023-11-10T05:43:53.243Z,100.00
2023-11-10T05:46:23.457Z,100.00
2023-11-10T05:48:51.565Z,100.00
2023-11-10T05:51:20.411Z,100.00
2023-11-10T05:53:48.556Z,100.00
2023-11-10T05:56:16.998Z,100.00
2023-11-10T05:58:45.173Z,100.00
2023-11-10T06:01:14.275Z,100.00
2023-11-10T06:03:43.363Z,100.00
2023-11-10T06:06:12.013Z,100.00
2023-11-10T06:08:40.402Z,100.00
2023-11-10T06:11:10.566Z,100.00
2023-11-10T06:13:38.669Z,100.00
2023-11-10T06:16:09.430Z,100.00
2023-11-10T06:18:37.712Z,100.00
2023-11-10T06:21:06.315Z,100.00
2023-11-10T07:16:13.970Z,100.00
2023-11-10T07:18:42.136Z,100.00
2023-11-10T07:21:12.273Z,100.00
2023-11-10T07:23:40.312Z,100.00
2023-11-10T07:26:08.712Z,100.00
2023-11-10T07:28:36.803Z,100.00
2023-11-10T07:31:05.710Z,100.00
2023-11-10T07:33:33.915Z,100.00
2023-11-10T07:36:02.878Z,100.00
2023-11-10T07:38:31.288Z,100.00
2023-11-10T07:41:00.168Z,100.00
2023-11-10T07:43:28.138Z,100.00
2023-11-10T07:45:56.653Z,100.00
2023-11-10T07:48:24.881Z,100.00
2023-11-10T07:50:53.299Z,100.00
2023-11-10T07:53:22.258Z,100.00
2023-11-10T07:55:51.677Z,100.00
2023-11-10T07:58:19.927Z,100.00
2023-11-10T08:00:49.186Z,100.00
2023-11-10T08:03:19.543Z,100.00
2023-11-10T08:05:48.229Z,100.00
2023-11-10T08:08:16.863Z,100.00
2023-11-10T08:10:45.367Z,100.00
2023-11-10T08:13:13.441Z,100.00
2023-11-10T08:15:45.198Z,100.00
2023-11-10T08:18:13.513Z,100.00
2023-11-10T08:20:41.931Z,100.00
2023-11-10T08:23:12.296Z,100.00
2023-11-10T08:25:41.395Z,100.00
2023-11-10T08:28:09.426Z,100.00
2023-11-10T08:30:37.946Z,100.00
2023-11-10T08:33:06.222Z,100.00
2023-11-10T08:35:34.656Z,100.00
2023-11-10T08:38:04.157Z,100.00
2023-11-10T08:40:35.451Z,100.00
2023-11-10T08:43:03.976Z,100.00
2023-11-10T08:45:32.840Z,100.00
2023-11-10T08:48:01.089Z,100.00
2023-11-10T08:50:29.317Z,100.00
2023-11-10T08:52:58.175Z,100.00
2023-11-10T08:55:26.344Z,100.00
2023-11-10T08:57:54.882Z,100.00
2023-11-10T09:00:23.076Z,100.00
2023-11-10T09:02:54.391Z,100.00
2023-11-10T09:05:23.930Z,100.00
2023-11-10T09:07:52.571Z,100.00
2023-11-10T09:10:20.797Z,100.00
2023-11-10T09:12:50.609Z,100.00
2023-11-10T09:15:19.610Z,100.00
2023-11-10T09:17:50.629Z,100.00
2023-11-10T09:20:18.843Z,100.00
2023-11-10T09:22:48.700Z,100.00
2023-11-10T09:25:21.717Z,100.00
2023-11-10T09:27:50.657Z,100.00
2023-11-10T09:30:18.702Z,100.00
2023-11-10T09:32:47.577Z,100.00
2023-11-10T09:35:18.466Z,100.00
2023-11-10T09:37:49.655Z,100.00
2023-11-10T09:40:17.805Z,100.00
2023-11-10T09:42:46.483Z,100.00
2023-11-10T09:45:17.798Z,100.00
2023-11-10T09:47:47.769Z,100.00
2023-11-10T09:50:19.670Z,100.00
2023-11-10T09:52:50.776Z,100.00
2023-11-10T09:55:19.825Z,100.00
2023-11-10T09:57:52.507Z,100.00
2023-11-10T10:00:22.570Z,100.00
2023-11-10T10:02:51.517Z,100.00
2023-11-10T10:05:19.920Z,100.00
2023-11-10T10:07:48.892Z,100.00
2023-11-10T10:10:16.942Z,100.00
2023-11-10T10:12:45.408Z,100.00
2023-11-10T10:15:13.743Z,100.00
2023-11-10T10:17:42.490Z,100.00
2023-11-10T10:20:15.769Z,100.00
2023-11-10T10:22:51.188Z,100.00
2023-11-10T10:25:22.345Z,100.00
2023-11-10T10:27:53.758Z,100.00
2023-11-10T10:30:22.047Z,100.00
2023-11-10T10:32:52.076Z,100.00
2023-11-10T10:35:20.249Z,100.00
2023-11-10T10:37:54.831Z,100.00
2023-11-10T10:40:24.465Z,100.00
2023-11-10T10:42:55.682Z,100.00
2023-11-10T10:45:30.480Z,100.00
2023-11-10T10:48:02.218Z,100.00
2023-11-10T10:50:32.650Z,100.00
2023-11-10T10:53:01.909Z,100.00
2023-11-10T10:55:33.263Z,100.00
2023-11-10T10:58:01.805Z,100.00
2023-11-10T11:00:32.580Z,100.00
2023-11-10T11:03:27.362Z,100.00
2023-11-10T11:06:33.302Z,100.00
2023-11-10T11:09:25.292Z,100.00
2023-11-10T11:12:16.827Z,100.00
2023-11-10T11:14:56.365Z,100.00
2023-11-10T11:17:48.510Z,100.00
2023-11-10T11:20:18.258Z,100.00
2023-11-10T11:22:47.455Z,100.00
2023-11-10T11:25:15.967Z,100.00
2023-11-10T11:27:44.182Z,100.00
2023-11-10T11:30:14.213Z,100.00
2023-11-10T11:32:44.362Z,100.00
2023-11-10T11:35:16.862Z,100.00
2023-11-10T11:37:46.751Z,100.00
2023-11-10T11:40:15.824Z,100.00
2023-11-10T11:42:44.494Z,100.00
2023-11-10T11:45:15.034Z,100.00
2023-11-10T11:47:44.530Z,100.00
2023-11-10T11:50:13.270Z,100.00
2023-11-10T11:52:42.450Z,100.00
2023-11-10T11:55:11.346Z,100.00
2023-11-10T11:57:39.762Z,100.00
2023-11-10T12:00:10.547Z,100.00
2023-11-10T12:02:41.213Z,100.00
2023-11-10T12:05:15.186Z,100.00
2023-11-10T12:07:44.422Z,100.00
2023-11-10T12:10:15.679Z,100.00
2023-11-10T12:12:46.476Z,100.00
2023-11-10T12:15:18.290Z,100.00
2023-11-10T12:17:46.629Z,100.00
2023-11-10T12:20:14.989Z,100.00
2023-11-10T12:22:55.788Z,100.00
2023-11-10T12:25:28.123Z,100.00
2023-11-10T12:27:56.729Z,98.10
2023-11-10T12:30:25.511Z,98.09
2023-11-10T12:32:54.278Z,98.75
2023-11-10T12:35:23.629Z,100.00
2023-11-10T12:37:55.520Z,99.00
2023-11-10T12:40:26.151Z,100.00
2023-11-10T12:42:55.239Z,100.00
2023-11-10T12:45:26.117Z,100.00
2023-11-10T12:48:00.539Z,100.00
2023-11-10T12:50:34.507Z,100.00
2023-11-10T12:53:05.401Z,100.00
2023-11-10T12:55:34.147Z,100.00
2023-11-10T12:58:02.412Z,100.00
2023-11-10T13:00:31.045Z,100.00
2023-11-10T13:02:59.258Z,100.00
2023-11-10T13:05:27.908Z,100.00
2023-11-10T13:07:57.329Z,100.00
2023-11-10T13:10:25.680Z,100.00
2023-11-10T13:12:54.849Z,100.00
2023-11-10T13:15:23.402Z,100.00
2023-11-10T13:17:51.535Z,100.00
2023-11-10T13:20:23.239Z,100.00
2023-11-10T13:22:53.629Z,100.00
2023-11-10T13:25:22.219Z,100.00
2023-11-10T13:27:50.765Z,100.00
2023-11-10T13:30:20.368Z,100.00
2023-11-10T13:32:54.371Z,100.00
2023-11-10T13:35:23.711Z,100.00
2023-11-10T13:37:52.061Z,100.00
2023-11-10T13:40:20.585Z,100.00
2023-11-10T13:42:48.761Z,100.00
2023-11-10T13:45:17.159Z,100.00
2023-11-10T13:47:46.161Z,100.00
2023-11-10T13:50:14.656Z,100.00
2023-11-10T13:52:44.077Z,100.00
2023-11-10T13:55:13.966Z,100.00
2023-11-10T13:57:42.697Z,100.00
2023-11-10T14:00:14.408Z,100.00
2023-11-10T14:02:43.681Z,100.00
2023-11-10T14:05:13.239Z,100.00
2023-11-10T14:07:41.597Z,100.00
2023-11-10T14:10:10.880Z,100.00
2023-11-10T14:12:42.568Z,100.00
2023-11-10T14:15:16.005Z,100.00
2023-11-10T14:17:44.117Z,100.00
2023-11-10T14:20:12.706Z,100.00
2023-11-10T14:22:44.042Z,100.00
2023-11-10T14:25:13.627Z,96.35
2023-11-10T14:27:41.829Z,91.14
2023-11-10T14:30:11.395Z,84.40
2023-11-10T14:32:39.626Z,93.26
2023-11-10T14:35:11.772Z,100.00
2023-11-10T14:37:43.563Z,100.00
2023-11-10T14:40:20.441Z,100.00
2023-11-10T14:42:51.487Z,100.00
2023-11-10T14:45:23.609Z,94.31
2023-11-10T14:47:53.000Z,100.00
2023-11-10T14:50:38.593Z,100.00
2023-11-10T14:53:09.931Z,100.00
2023-11-10T14:55:40.316Z,100.00
2023-11-10T14:58:08.422Z,100.00
2023-11-10T15:00:40.834Z,100.00
2023-11-10T15:03:11.822Z,100.00
2023-11-10T15:05:40.629Z,100.00
2023-11-10T15:08:10.014Z,100.00
2023-11-10T15:10:39.432Z,100.00
2023-11-10T15:13:12.887Z,100.00
2023-11-10T15:15:49.575Z,100.00
2023-11-10T15:18:21.402Z,100.00
2023-11-10T15:20:50.437Z,100.00
2023-11-10T15:23:21.093Z,100.00
2023-11-10T15:25:51.618Z,100.00
2023-11-10T15:28:19.948Z,100.00
2023-11-10T15:30:50.489Z,100.00
2023-11-10T15:33:19.398Z,100.00
2023-11-10T15:35:48.412Z,100.00
2023-11-10T15:38:18.284Z,100.00
2023-11-10T15:40:51.399Z,100.00
2023-11-10T15:43:20.297Z,100.00
2023-11-10T15:45:49.953Z,100.00
2023-11-10T15:48:18.620Z,100.00
2023-11-10T15:50:47.826Z,100.00
2023-11-10T15:53:15.965Z,100.00
2023-11-10T15:55:44.445Z,100.00
2023-11-10T15:58:12.606Z,100.00
2023-11-10T16:00:42.217Z,100.00
2023-11-10T16:03:10.699Z,100.00
2023-11-10T16:05:42.273Z,100.00
2023-11-10T16:08:11.891Z,100.00
2023-11-10T16:10:40.367Z,100.00
2023-11-10T16:13:08.413Z,100.00
2023-11-10T16:15:37.417Z,100.00
2023-11-10T16:18:06.735Z,100.00
2023-11-10T16:20:35.192Z,100.00
2023-11-10T16:23:04.455Z,100.00
2023-11-10T16:25:33.626Z,100.00
2023-11-10T16:28:01.798Z,100.00
2023-11-10T16:30:30.292Z,100.00
2023-11-10T16:33:00.362Z,100.00
2023-11-10T16:35:29.018Z,100.00
2023-11-10T16:37:57.253Z,100.00
2023-11-10T16:40:25.631Z,100.00
2023-11-10T16:42:53.801Z,100.00
2023-11-10T16:45:22.296Z,100.00
2023-11-10T16:47:50.607Z,100.00
2023-11-10T16:50:19.128Z,100.00
2023-11-10T16:52:47.132Z,100.00
2023-11-10T16:55:15.717Z,100.00
2023-11-10T16:57:43.973Z,100.00
2023-11-10T17:00:15.776Z,100.00
2023-11-10T17:02:46.314Z,100.00
2023-11-10T17:05:21.088Z,100.00
2023-11-10T17:07:50.724Z,100.00
2023-11-10T17:10:19.289Z,100.00
2023-11-10T17:12:48.030Z,100.00
2023-11-10T17:15:16.763Z,100.00
2023-11-10T17:17:46.730Z,100.00
2023-11-10T17:20:15.364Z,100.00
2023-11-10T17:22:43.559Z,100.00
2023-11-10T17:25:12.104Z,100.00
2023-11-10T17:27:40.489Z,100.00
2023-11-10T17:30:09.572Z,100.00
2023-11-10T17:32:37.928Z,100.00
2023-11-10T17:35:06.951Z,100.00
2023-11-10T17:37:35.228Z,100.00
2023-11-10T17:40:05.920Z,100.00
2023-11-10T17:42:35.409Z,100.00
2023-11-10T17:45:04.381Z,100.00
2023-11-10T17:47:39.196Z,100.00
2023-11-10T17:50:10.052Z,100.00
2023-11-10T17:52:38.315Z,100.00
2023-11-10T17:55:09.673Z,100.00
2023-11-10T17:57:37.955Z,100.00
2023-11-10T18:00:10.503Z,100.00
2023-11-10T18:02:41.900Z,100.00
2023-11-10T18:05:12.286Z,100.00
2023-11-10T18:07:41.432Z,100.00
2023-11-10T18:10:10.522Z,100.00
2023-11-10T18:12:38.703Z,100.00
2023-11-10T18:15:08.238Z,100.00
2023-11-10T18:17:37.126Z,100.00
2023-11-10T18:20:07.866Z,100.00
2023-11-10T18:22:36.095Z,100.00
2023-11-10T18:25:05.430Z,100.00
2023-11-10T18:27:34.190Z,100.00
2023-11-10T18:30:02.698Z,100.00
2023-11-10T18:32:30.872Z,100.00
2023-11-10T18:34:59.400Z,100.00
2023-11-10T18:37:27.869Z,100.00
2023-11-10T18:39:57.506Z,100.00
2023-11-10T18:42:26.823Z,100.00
2023-11-10T18:44:55.316Z,100.00
2023-11-10T18:47:23.442Z,100.00
2023-11-10T18:49:51.885Z,100.00
2023-11-10T18:52:20.093Z,100.00
2023-11-10T18:54:48.682Z,100.00
2023-11-10T18:57:16.792Z,100.00
2023-11-10T18:59:45.191Z,100.00
2023-11-10T19:02:13.272Z,100.00
2023-11-10T19:04:43.938Z,100.00
2023-11-10T19:07:12.860Z,100.00
2023-11-10T19:09:42.418Z,100.00
2023-11-10T19:12:10.559Z,100.00
2023-11-10T19:14:39.292Z,100.00
2023-11-10T19:17:08.386Z,100.00
2023-11-10T19:19:39.342Z,100.00
2023-11-10T19:22:08.851Z,100.00
2023-11-10T19:24:37.454Z,100.00
2023-11-10T19:27:05.897Z,100.00
2023-11-10T19:29:34.485Z,100.00
2023-11-10T19:32:02.600Z,100.00
2023-11-10T19:34:31.218Z,100.00
2023-11-10T19:36:59.354Z,100.00
2023-11-10T19:39:27.883Z,100.00
2023-11-10T19:41:56.378Z,100.00
2023-11-10T19:44:24.531Z,100.00
2023-11-10T19:46:53.094Z,100.00
2023-11-10T19:49:22.102Z,100.00
2023-11-10T19:56:53.661Z,100.00
2023-11-10T19:59:24.391Z,100.00
2023-11-10T20:01:54.064Z,100.00
2023-11-10T20:04:22.130Z,100.00
2023-11-10T20:06:51.702Z,100.00
2023-11-10T20:09:19.895Z,100.00
2023-11-10T20:11:48.491Z,100.00
2023-11-10T20:14:17.952Z,100.00
2023-11-10T20:16:48.044Z,100.00
2023-11-10T20:19:16.248Z,100.00
2023-11-10T20:21:44.915Z,100.00
2023-11-10T20:24:13.372Z,100.00
2023-11-10T20:26:42.420Z,100.00
2023-11-10T20:29:10.597Z,100.00
2023-11-10T20:31:39.229Z,100.00
2023-11-10T20:34:07.311Z,100.00
2023-11-10T20:36:36.033Z,100.00
2023-11-10T20:39:05.112Z,100.00
2023-11-10T20:41:33.471Z,100.00
2023-11-10T20:44:01.622Z,100.00
2023-11-10T20:46:30.232Z,100.00
2023-11-10T20:48:59.482Z,100.00
2023-11-10T20:51:28.157Z,100.00
2023-11-10T20:53:56.255Z,100.00
2023-11-10T20:56:26.498Z,100.00
2023-11-10T20:58:54.624Z,100.00
2023-11-10T21:01:24.157Z,100.00
2023-11-10T21:03:52.470Z,100.00
2023-11-10T21:06:23.708Z,100.00
2023-11-10T21:08:51.867Z,100.00
2023-11-10T21:11:20.519Z,100.00
2023-11-10T21:13:48.709Z,100.00
2023-11-10T21:16:17.175Z,100.00
2023-11-10T21:18:45.493Z,100.00
2023-11-10T21:21:15.232Z,100.00
2023-11-10T21:23:43.484Z,100.00
2023-11-10T21:26:12.074Z,100.00
2023-11-10T21:28:40.514Z,100.00
2023-11-10T21:31:08.939Z,100.00
2023-11-10T21:33:38.513Z,100.00
2023-11-10T21:36:07.481Z,100.00
2023-11-10T21:38:38.682Z,100.00
2023-11-10T21:41:07.170Z,100.00
2023-11-10T21:43:35.913Z,100.00
2023-11-10T21:46:04.483Z,100.00
2023-11-10T21:48:34.449Z,100.00
2023-11-10T21:51:03.974Z,100.00
2023-11-10T21:53:32.032Z,100.00
2023-11-10T21:56:00.513Z,100.00
2023-11-10T21:58:28.627Z,100.00
2023-11-10T22:00:58.324Z,100.00
2023-11-10T22:03:26.680Z,100.00
2023-11-10T22:05:55.279Z,100.00
2023-11-10T22:08:23.360Z,100.00
2023-11-10T22:10:51.754Z,100.00
2023-11-10T22:13:19.840Z,100.00
2023-11-10T22:15:48.227Z,100.00
2023-11-10T22:18:16.854Z,100.00
2023-11-10T22:20:45.431Z,100.00
2023-11-10T22:23:13.646Z,100.00
2023-11-10T22:25:42.054Z,100.00
2023-11-10T22:28:10.146Z,100.00
2023-11-10T22:30:38.696Z,100.00
2023-11-10T22:33:06.871Z,100.00
2023-11-10T22:35:35.631Z,100.00
2023-11-10T22:38:03.794Z,100.00
2023-11-10T22:40:32.198Z,100.00
2023-11-10T22:43:00.382Z,100.00
2023-11-10T22:45:29.689Z,100.00
2023-11-10T22:47:58.672Z,100.00
2023-11-10T22:50:27.184Z,100.00
2023-11-10T22:52:55.379Z,100.00
2023-11-10T22:55:25.230Z,100.00
2023-11-10T22:57:53.315Z,100.00
2023-11-10T23:00:28.431Z,100.00
2023-11-10T23:02:57.087Z,100.00
2023-11-10T23:05:26.072Z,100.00
2023-11-10T23:07:56.128Z,100.00
2023-11-10T23:10:29.472Z,100.00
2023-11-10T23:13:00.292Z,100.00
2023-11-10T23:15:30.917Z,100.00
2023-11-10T23:18:00.110Z,100.00
2023-11-10T23:20:34.714Z,100.00
2023-11-10T23:23:05.222Z,100.00
2023-11-10T23:25:38.929Z,100.00
2023-11-10T23:28:07.390Z,100.00
2023-11-10T23:30:36.053Z,100.00
2023-11-10T23:33:04.662Z,100.00
2023-11-10T23:35:35.106Z,100.00
2023-11-10T23:38:03.501Z,100.00
2023-11-10T23:40:34.046Z,100.00
2023-11-10T23:43:02.138Z,100.00
2023-11-10T23:45:30.644Z,100.00
2023-11-10T23:47:58.921Z,100.00
2023-11-10T23:50:28.599Z,100.00
2023-11-10T23:52:56.836Z,100.00
2023-11-10T23:55:25.296Z,100.00
2023-11-10T23:57:53.368Z,100.00
